Time;durP1;ratioP1;P1;durP2;ratioP2;P2;SDS_P1;SDS_P2;PMS_P1;PMS_P2;Temp;Humidity;BMP_temperature;BMP_pressure;BME280_temperature;BME280_humidity;BME280_pressure;Samples;Min_cycle;Max_cycle;Signal;HPM_P1;HPM_P2
2022/01/19 00:02:21;;;;;;;68.40;20.48;;;;;;;-2.08;75.28;98834.34;5012693;28;20507;-82
2022/01/19 00:04:46;;;;;;;109.40;33.83;;;;;;;-2.02;74.41;98823.91;4996855;28;20017;-82
2022/01/19 00:07:12;;;;;;;103.78;31.60;;;;;;;-2.15;74.89;98815.94;5004595;28;20026;-82
2022/01/19 00:09:37;;;;;;;61.50;21.98;;;;;;;-2.09;75.49;98834.34;4992364;28;20025;-82
2022/01/19 00:12:03;;;;;;;75.07;25.85;;;;;;;-2.06;75.63;98843.06;5011933;28;20504;-83
2022/01/19 00:14:30;;;;;;;51.60;20.20;;;;;;;-1.98;75.22;98845.78;4997198;28;20425;-82
2022/01/19 00:16:56;;;;;;;52.35;19.58;;;;;;;-2.10;75.71;98825.59;4996690;28;20521;-82
2022/01/19 00:19:21;;;;;;;66.15;24.70;;;;;;;-2.06;75.40;98843.06;5012566;28;20056;-82
2022/01/19 00:21:47;;;;;;;71.63;26.13;;;;;;;-2.11;76.65;98860.50;5012385;28;20030;-82
2022/01/19 00:24:13;;;;;;;102.88;31.90;;;;;;;-2.14;77.34;98859.59;5012025;28;20080;-82
2022/01/19 00:26:38;;;;;;;117.68;36.38;;;;;;;-2.16;76.78;98856.97;5012248;28;20588;-82
2022/01/19 00:29:04;;;;;;;100.60;30.27;;;;;;;-2.08;76.82;98868.41;4995919;28;20104;-82
2022/01/19 00:31:30;;;;;;;203.23;53.00;;;;;;;-2.13;76.45;98869.22;4992429;28;20034;-82
2022/01/19 00:33:55;;;;;;;153.63;42.17;;;;;;;-2.17;76.21;98876.19;4990036;28;20383;-82
2022/01/19 00:36:21;;;;;;;182.52;53.85;;;;;;;-2.23;76.97;98871.78;5012167;28;20032;-82
2022/01/19 00:38:47;;;;;;;111.63;38.17;;;;;;;-2.35;77.03;98855.06;4986748;28;20026;-82
2022/01/19 00:41:12;;;;;;;105.60;35.65;;;;;;;-2.19;76.90;98877.91;4995722;28;20513;-83
2022/01/19 00:43:38;;;;;;;148.73;42.63;;;;;;;-2.17;78.10;98884.03;5010669;28;20037;-82
2022/01/19 00:46:04;;;;;;;183.23;51.20;;;;;;;-2.13;78.03;98883.22;5009365;28;20025;-81
2022/01/19 00:48:30;;;;;;;89.10;34.28;;;;;;;-2.15;77.53;98889.31;4995093;28;20042;-80
2022/01/19 00:50:57;;;;;;;69.03;28.02;;;;;;;-2.16;78.65;98906.78;4995274;28;20028;-81
2022/01/19 00:53:23;;;;;;;76.47;27.67;;;;;;;-2.21;78.91;98909.34;4990557;28;20033;-82
2022/01/19 00:55:49;;;;;;;77.78;30.27;;;;;;;-2.36;78.97;98900.44;4999887;28;20026;-83
2022/01/19 00:58:14;;;;;;;62.95;26.00;;;;;;;-2.29;78.44;98899.66;4995311;28;20041;-81
2022/01/19 01:00:40;;;;;;;60.72;23.17;;;;;;;-2.18;78.67;98905.84;4994976;28;20029;-82
2022/01/19 01:03:06;;;;;;;64.53;23.48;;;;;;;-2.23;78.98;98889.22;4995460;28;20433;-82
2022/01/19 01:05:33;;;;;;;57.42;25.73;;;;;;;-2.22;79.01;98897.13;5011813;28;20064;-82
2022/01/19 01:07:58;;;;;;;57.13;24.73;;;;;;;-2.18;78.36;98897.16;5011628;28;20022;-82
2022/01/19 01:10:24;;;;;;;55.63;23.95;;;;;;;-2.18;78.40;98884.03;5011500;28;20563;-82
2022/01/19 01:12:52;;;;;;;66.32;26.90;;;;;;;-2.25;77.84;98877.88;5011186;28;20028;-81
2022/01/19 01:20:29;;;;;;;65.97;25.58;;;;;;;-2.41;78.85;98868.09;5005629;28;20037;-82
2022/01/19 01:22:55;;;;;;;53.35;21.00;;;;;;;-2.42;78.87;98863.69;4994920;28;20040;-81
2022/01/19 01:25:20;;;;;;;59.88;20.23;;;;;;;-2.52;78.44;98860.09;4987405;28;20109;-82
2022/01/19 01:27:46;;;;;;;51.95;21.08;;;;;;;-2.51;79.52;98856.63;4991652;28;21887;-81
2022/01/19 01:30:12;;;;;;;54.95;20.50;;;;;;;-2.56;78.87;98849.59;4988206;28;20442;-82
2022/01/19 01:32:38;;;;;;;56.00;19.60;;;;;;;-2.48;78.75;98856.66;5011165;28;20120;-82
2022/01/19 01:35:04;;;;;;;61.92;20.77;;;;;;;-2.39;78.77;98868.97;4995164;28;20468;-82
2022/01/19 01:37:29;;;;;;;64.07;23.17;;;;;;;-2.33;77.73;98871.66;4994842;28;20049;-81
2022/01/19 01:39:56;;;;;;;53.35;17.00;;;;;;;-2.54;78.16;98837.38;5011368;28;20587;-81
2022/01/19 01:42:23;;;;;;;48.53;18.30;;;;;;;-2.43;78.34;98867.19;5010999;28;20169;-82
2022/01/19 01:44:52;;;;;;;55.35;21.70;;;;;;;-2.46;79.08;98862.78;4994870;28;20026;-82
2022/01/19 01:47:19;;;;;;;54.00;19.33;;;;;;;-2.60;79.57;98842.56;4995153;28;20124;-81
2022/01/19 01:54:55;;;;;;;69.22;25.83;;;;;;;-2.71;81.06;98844.19;5010548;28;20040;-81
2022/01/19 01:57:21;;;;;;;60.88;23.27;;;;;;;-2.73;81.99;98836.31;4994549;28;20033;-81
2022/01/19 01:59:46;;;;;;;46.55;18.35;;;;;;;-2.69;82.28;98847.69;4994537;28;20030;-82
2022/01/19 02:02:12;;;;;;;71.72;27.45;;;;;;;-2.78;83.17;98838.91;5011115;28;20053;-81
2022/01/19 02:04:41;;;;;;;51.90;21.42;;;;;;;-2.88;83.58;98818.69;4994418;28;20482;-82
2022/01/19 02:09:58;;;;;;;58.13;23.85;;;;;;;-2.88;84.73;98831.78;5010937;28;20092;-82
2022/01/19 02:25:52;;;;;;;50.38;21.23;;;;;;;-2.93;84.28;98804.69;5011244;28;20172;-82
2022/01/19 02:31:49;;;;;;;54.10;21.00;;;;;;;-2.84;84.20;98812.66;5011180;28;20044;-82
2022/01/19 02:36:53;;;;;;;59.75;23.55;;;;;;;-2.76;82.78;98816.22;5011393;28;20468;-82
2022/01/19 02:42:07;;;;;;;75.53;28.90;;;;;;;-2.81;82.15;98817.91;5008168;28;20041;-81
2022/01/19 02:49:50;;;;;;;40.78;16.05;;;;;;;-2.83;80.66;98819.63;5010608;28;20129;-82
2022/01/19 02:52:17;;;;;;;41.53;16.83;;;;;;;-2.90;81.38;98809.09;5010052;28;20036;-82
2022/01/19 02:54:43;;;;;;;42.42;16.48;;;;;;;-2.84;81.49;98827.47;5009919;28;20029;-83
2022/01/19 02:57:10;;;;;;;46.08;17.10;;;;;;;-2.95;80.93;98809.00;4993608;28;20033;-82
2022/01/19 03:10:14;;;;;;;28.48;11.00;;;;;;;-3.05;81.75;98807.19;5004419;28;20080;-82
2022/01/19 03:12:40;;;;;;;26.20;11.68;;;;;;;-3.06;82.90;98815.00;4993620;28;20029;-83
2022/01/19 03:15:10;;;;;;;27.13;8.88;;;;;;;-3.05;83.40;98828.13;4994052;28;20493;-83
2022/01/19 03:17:35;;;;;;;23.30;11.07;;;;;;;-3.16;83.91;98819.22;4990478;28;20030;-82
2022/01/19 03:20:01;;;;;;;21.08;8.90;;;;;;;-3.18;84.56;98825.31;4996559;28;20034;-82
2022/01/19 03:22:34;;;;;;;17.73;8.15;;;;;;;-3.25;84.92;98813.00;5010111;28;20022;-82
2022/01/19 03:25:00;;;;;;;15.02;7.25;;;;;;;-3.26;86.09;98819.97;5006049;28;20033;-82
2022/01/19 03:27:26;;;;;;;23.27;9.20;;;;;;;-3.24;86.63;98823.50;5013131;28;20026;-81
2022/01/19 03:29:51;;;;;;;19.90;9.13;;;;;;;-3.21;86.52;98828.78;4995870;28;20049;-82
2022/01/19 03:32:17;;;;;;;21.27;10.13;;;;;;;-3.18;87.18;98831.44;4996943;28;20537;-81
2022/01/19 03:34:43;;;;;;;26.83;10.05;;;;;;;-3.29;87.19;98828.66;4996940;28;20018;-82
2022/01/19 03:37:11;;;;;;;23.00;9.60;;;;;;;-3.33;87.00;98820.78;5010203;28;20026;-82
2022/01/19 03:39:37;;;;;;;24.42;10.10;;;;;;;-3.32;87.69;98827.72;5007956;28;20030;-82
2022/01/19 03:42:03;;;;;;;22.65;10.13;;;;;;;-3.46;87.93;98805.78;4996849;28;20579;-82
2022/01/19 03:44:28;;;;;;;23.77;9.75;;;;;;;-3.40;88.30;98809.34;5013165;28;20481;-82
2022/01/19 03:47:02;;;;;;;24.50;11.38;;;;;;;-3.41;88.29;98814.53;4997042;28;20036;-82
2022/01/19 03:49:32;;;;;;;21.75;10.18;;;;;;;-3.41;89.38;98809.31;5013600;28;20045;-82
2022/01/19 03:52:02;;;;;;;26.85;12.07;;;;;;;-3.34;88.71;98819.00;4995345;28;20030;-82
2022/01/19 03:54:29;;;;;;;37.53;16.30;;;;;;;-3.33;88.53;98841.69;4996501;28;20026;-82
2022/01/19 03:56:55;;;;;;;41.85;17.30;;;;;;;-3.37;89.33;98835.53;5003024;28;20029;-83
2022/01/19 03:59:21;;;;;;;48.83;18.77;;;;;;;-3.22;89.50;98845.31;5012615;28;20389;-82
2022/01/19 04:01:46;;;;;;;42.15;19.88;;;;;;;-3.20;89.14;98830.53;5012654;28;20030;-83
2022/01/19 04:09:31;;;;;;;57.40;24.85;;;;;;;-3.02;87.94;98843.84;5012724;28;20099;-81
2022/01/19 04:11:57;;;;;;;37.22;15.43;;;;;;;-2.90;86.38;98844.00;5012521;28;20041;-82
2022/01/19 04:14:22;;;;;;;27.95;11.25;;;;;;;-2.86;84.18;98835.28;5012271;28;20018;-82
2022/01/19 04:16:59;;;;;;;30.30;11.32;;;;;;;-2.66;82.63;98853.84;4995814;28;20026;-82
2022/01/19 04:21:51;;;;;;;21.75;9.68;;;;;;;-2.67;81.78;98859.94;5001765;28;20509;-82
2022/01/19 04:24:17;;;;;;;24.52;10.18;;;;;;;-2.60;81.68;98864.38;5012087;28;20068;-82
2022/01/19 04:26:44;;;;;;;26.10;12.88;;;;;;;-2.51;82.14;98872.34;5012413;28;20038;-82
2022/01/19 04:29:10;;;;;;;25.63;12.13;;;;;;;-2.60;81.59;98855.66;5012042;28;20034;-82
2022/01/19 04:31:35;;;;;;;53.17;23.23;;;;;;;-2.48;81.59;98864.53;4994406;28;20033;-82
2022/01/19 04:34:04;;;;;;;53.22;22.67;;;;;;;-2.45;82.12;98868.91;4995617;28;20030;-82
2022/01/19 04:44:43;;;;;;;47.60;21.90;;;;;;;-2.61;84.05;98877.44;5012575;28;20092;-73
2022/01/19 05:03:59;;;;;;;75.95;28.25;;;;;;;-2.45;86.37;98906.47;5011846;28;20037;-81
2022/01/19 05:06:25;;;;;;;51.95;21.50;;;;;;;-2.47;86.11;98891.59;4991712;28;20087;-82
2022/01/19 05:09:05;;;;;;;29.90;12.48;;;;;;;-2.61;85.99;98890.53;5011592;28;20065;-82
2022/01/19 05:14:14;;;;;;;25.70;12.02;;;;;;;-3.05;85.23;98859.50;5011381;28;20408;-81
2022/01/19 05:16:40;;;;;;;45.15;17.05;;;;;;;-3.09;87.09;98872.53;4987397;28;20117;-82
2022/01/19 05:19:05;;;;;;;30.63;12.40;;;;;;;-2.87;87.02;98901.59;4991805;28;20030;-82
2022/01/19 05:21:31;;;;;;;32.83;13.13;;;;;;;-2.84;86.56;98909.50;4995137;28;20045;-85
2022/01/19 05:23:56;;;;;;;36.42;14.65;;;;;;;-2.83;86.59;98898.16;4996099;28;20085;-83
2022/01/19 05:26:22;;;;;;;26.73;11.15;;;;;;;-2.80;84.33;98882.47;5010712;28;20030;-85
2022/01/19 05:28:48;;;;;;;41.85;17.77;;;;;;;-2.62;85.07;98912.38;4991332;28;20030;-74
2022/01/19 05:31:13;;;;;;;31.08;14.88;;;;;;;-2.56;84.33;98917.69;4990759;28;20038;-85
2022/01/19 05:33:39;;;;;;;42.80;17.80;;;;;;;-2.65;85.90;98914.97;4994469;28;20379;-82
2022/01/19 05:36:05;;;;;;;44.50;17.05;;;;;;;-2.57;85.50;98927.28;4994868;28;20029;-83
2022/01/19 05:38:30;;;;;;;54.50;22.52;;;;;;;-2.54;84.54;98915.94;4994956;28;20145;-83
2022/01/19 05:40:56;;;;;;;44.03;18.92;;;;;;;-2.51;84.53;98922.09;4981336;28;20034;-82
2022/01/19 05:43:22;;;;;;;36.85;15.88;;;;;;;-2.45;83.61;98909.06;4993952;28;20053;-82
2022/01/19 05:45:48;;;;;;;38.75;15.88;;;;;;;-2.29;82.33;98918.88;4994284;28;20030;-84
2022/01/19 05:48:13;;;;;;;50.78;20.05;;;;;;;-2.34;82.84;98910.06;4991072;28;20517;-82
2022/01/19 05:50:39;;;;;;;51.38;20.73;;;;;;;-2.26;83.06;98929.38;4993398;28;20038;-82
2022/01/19 05:53:04;;;;;;;42.75;18.17;;;;;;;-2.29;82.38;98923.22;5010632;28;20083;-85
2022/01/19 05:55:30;;;;;;;38.53;16.00;;;;;;;-2.26;82.85;98929.38;4999600;28;20041;-82
2022/01/19 05:57:56;;;;;;;45.10;15.27;;;;;;;-2.35;82.93;98928.41;4994947;28;20040;-86
2022/01/19 06:00:21;;;;;;;40.53;18.63;;;;;;;-2.25;83.01;98943.38;5011735;28;20030;-85
2022/01/19 06:02:48;;;;;;;58.53;21.80;;;;;;;-2.41;83.06;98928.34;4995436;28;20033;-87
2022/01/19 06:05:15;;;;;;;45.38;18.60;;;;;;;-2.33;83.58;98939.75;5011110;28;20032;-87
2022/01/19 06:07:44;;;;;;;48.90;18.00;;;;;;;-2.38;82.51;98918.78;4995058;28;20470;-86
2022/01/19 06:10:11;;;;;;;42.33;17.52;;;;;;;-2.13;81.54;98945.22;5011835;28;20061;-86
2022/01/19 06:12:38;;;;;;;43.22;16.65;;;;;;;-2.09;81.88;98936.53;5012029;28;20109;-85
2022/01/19 06:15:05;;;;;;;97.95;38.50;;;;;;;-2.14;82.11;98928.63;4995020;28;20406;-85
2022/01/19 06:17:30;;;;;;;66.97;27.73;;;;;;;-2.04;81.86;98946.22;5012055;28;20041;-85
2022/01/19 06:19:56;;;;;;;65.05;26.05;;;;;;;-2.05;81.75;98947.06;4995726;28;20042;-84
2022/01/19 06:22:21;;;;;;;54.03;22.02;;;;;;;-1.96;81.33;98939.28;4994612;28;20808;-86
2022/01/19 06:24:48;;;;;;;57.20;23.00;;;;;;;-1.81;80.94;98956.91;5011253;28;20448;-86
2022/01/19 06:27:13;;;;;;;75.13;30.35;;;;;;;-1.94;80.83;98955.94;5011245;28;20100;-86
2022/01/19 06:29:39;;;;;;;68.50;27.83;;;;;;;-1.86;81.44;98949.00;4990834;28;20038;-87
2022/01/19 06:32:08;;;;;;;100.10;33.92;;;;;;;-1.79;81.08;98937.72;4993381;28;20113;-86
2022/01/19 06:34:33;;;;;;;332.35;111.78;;;;;;;-1.81;81.92;98941.16;4995050;28;20037;-86
2022/01/19 06:36:59;;;;;;;232.27;77.20;;;;;;;-1.78;81.39;98939.44;4994883;28;20034;-86
2022/01/19 06:39:24;;;;;;;68.35;28.00;;;;;;;-1.58;80.26;98951.88;5009509;28;20061;-87
2022/01/19 06:41:50;;;;;;;62.00;23.35;;;;;;;-1.47;80.18;98952.81;5011388;28;20411;-86
2022/01/19 06:44:16;;;;;;;59.88;22.02;;;;;;;-1.34;80.25;98952.06;5010584;28;20018;-86
2022/01/19 06:46:42;;;;;;;72.68;27.58;;;;;;;-1.33;79.95;98949.47;5011305;28;20040;-86
2022/01/19 06:49:08;;;;;;;86.35;30.77;;;;;;;-1.21;79.86;98959.16;5010667;28;20136;-85
2022/01/19 06:51:34;;;;;;;56.45;22.98;;;;;;;-1.24;78.52;98953.91;5011868;28;20124;-86
2022/01/19 06:53:59;;;;;;;48.60;19.52;;;;;;;-1.28;79.16;98950.38;4998468;28;20026;-85
2022/01/19 06:56:25;;;;;;;47.30;19.65;;;;;;;-1.25;79.68;98949.50;5013892;28;20030;-86
2022/01/19 06:58:50;;;;;;;64.57;22.48;;;;;;;-1.07;80.50;98952.25;5015621;28;20460;-84
2022/01/19 07:01:16;;;;;;;57.80;24.98;;;;;;;-0.99;78.80;98954.94;4997417;28;20046;-85
2022/01/19 07:03:42;;;;;;;71.57;26.92;;;;;;;-1.26;79.74;98935.50;4999350;28;20026;-85
2022/01/19 07:06:11;;;;;;;48.50;20.45;;;;;;;-1.10;80.00;98952.22;5015847;28;20516;-86
2022/01/19 07:08:40;;;;;;;45.60;19.75;;;;;;;-1.17;79.90;98929.47;4996470;28;20045;-86
2022/01/19 07:11:06;;;;;;;45.53;19.23;;;;;;;-0.82;79.20;98929.63;4991830;28;20026;-86
2022/01/19 07:13:32;;;;;;;48.33;21.60;;;;;;;-0.58;77.05;98933.25;5015923;28;20030;-85
2022/01/19 07:15:57;;;;;;;56.35;22.60;;;;;;;-0.53;76.33;98920.16;5025809;28;20029;-86
2022/01/19 07:18:23;;;;;;;62.95;25.50;;;;;;;-0.62;75.82;98921.00;4999275;28;20045;-85
2022/01/19 07:20:48;;;;;;;64.07;25.02;;;;;;;-0.49;75.65;98921.91;4998914;28;20036;-86
2022/01/19 07:23:14;;;;;;;53.15;21.95;;;;;;;-0.30;74.02;98918.47;5007968;28;20181;-87
2022/01/19 07:25:40;;;;;;;45.80;17.38;;;;;;;-0.13;71.27;98923.78;4998129;28;20025;-85
2022/01/19 07:28:11;;;;;;;46.05;17.63;;;;;;;-0.08;71.70;98920.28;4998528;28;20551;-86
2022/01/19 07:30:37;;;;;;;48.83;20.83;;;;;;;0.00;70.98;98912.41;4999556;28;20053;-86
2022/01/19 07:33:05;;;;;;;64.53;22.70;;;;;;;0.13;70.09;98919.44;5016580;28;20045;-86
2022/01/19 07:35:31;;;;;;;203.05;63.15;;;;;;;-0.06;70.07;98915.91;4998817;28;20036;-85
2022/01/19 07:37:57;;;;;;;202.85;63.85;;;;;;;0.16;70.49;98918.56;4998640;28;20459;-86
2022/01/19 07:40:22;;;;;;;162.77;50.65;;;;;;;0.39;69.87;98922.97;5014705;28;20509;-86
2022/01/19 07:42:48;;;;;;;103.28;38.55;;;;;;;0.52;69.69;98918.59;5013286;28;20053;-86
2022/01/19 07:45:15;;;;;;;100.55;41.00;;;;;;;0.70;69.62;98925.59;4998163;28;20056;-86
2022/01/19 07:47:41;;;;;;;101.50;39.25;;;;;;;0.76;68.81;98918.56;4998834;28;20107;-86
2022/01/19 07:50:07;;;;;;;97.50;41.70;;;;;;;1.02;67.15;98900.06;5015684;28;20076;-88
2022/01/19 07:52:33;;;;;;;130.95;53.13;;;;;;;0.90;66.75;98900.97;4993344;28;20063;-87
2022/01/19 07:54:58;;;;;;;113.30;44.13;;;;;;;1.01;67.28;98907.13;5014971;28;20052;-84
2022/01/19 07:57:24;;;;;;;106.20;43.75;;;;;;;1.31;66.17;98906.13;4998754;28;20371;-86
2022/01/19 07:59:49;;;;;;;64.15;29.17;;;;;;;1.33;65.06;98908.75;5014455;28;20517;-85
2022/01/19 08:02:16;;;;;;;63.83;25.02;;;;;;;1.28;63.76;98898.25;5014498;28;20036;-83
2022/01/19 08:04:42;;;;;;;63.05;24.17;;;;;;;1.58;63.03;98903.38;4989170;28;20049;-86
2022/01/19 08:07:08;;;;;;;56.30;25.38;;;;;;;1.59;62.44;98905.16;4999449;28;20030;-85
2022/01/19 08:09:35;;;;;;;63.70;28.08;;;;;;;1.50;63.46;98904.31;5015279;28;20034;-86
2022/01/19 08:12:01;;;;;;;72.53;29.10;;;;;;;1.78;62.46;98890.13;4999677;28;20548;-86
2022/01/19 08:14:27;;;;;;;66.88;27.65;;;;;;;2.01;60.75;98900.50;4999361;28;20030;-87
2022/01/19 08:16:54;;;;;;;78.15;31.20;;;;;;;2.60;59.14;98900.06;4999288;28;20481;-86
2022/01/19 08:19:22;;;;;;;94.40;37.70;;;;;;;2.55;58.04;98870.19;4998123;28;20034;-87
2022/01/19 08:21:51;;;;;;;72.00;30.10;;;;;;;2.71;57.54;98883.22;5014659;28;20034;-87
2022/01/19 08:24:17;;;;;;;79.13;31.77;;;;;;;2.94;57.36;98879.50;5014709;28;20026;-87
2022/01/19 08:26:43;;;;;;;85.47;35.70;;;;;;;3.00;57.19;98859.16;4995220;28;20027;-86
2022/01/19 08:29:09;;;;;;;87.88;36.85;;;;;;;3.02;56.78;98865.28;5015651;28;20421;-86
2022/01/19 08:31:35;;;;;;;85.82;37.50;;;;;;;3.22;55.90;98858.03;5015023;28;20030;-87
2022/01/19 08:34:01;;;;;;;98.53;42.45;;;;;;;3.09;55.90;98852.88;4988721;28;20040;-87
2022/01/19 08:36:28;;;;;;;94.35;39.33;;;;;;;3.05;55.81;98861.72;4999227;28;20087;-86
2022/01/19 08:38:55;;;;;;;100.22;43.10;;;;;;;3.61;55.57;98861.94;5014602;28;20025;-86
2022/01/19 08:41:20;;;;;;;100.90;43.85;;;;;;;5.96;50.12;98850.63;5014283;28;20103;-86
2022/01/19 08:43:46;;;;;;;105.45;46.55;;;;;;;6.46;47.76;98811.38;5013844;28;20065;-87
2022/01/19 08:46:12;;;;;;;111.32;51.42;;;;;;;5.56;49.48;98833.81;4994678;28;20099;-87
2022/01/19 08:48:37;;;;;;;113.05;49.42;;;;;;;5.32;50.46;98835.16;4994273;28;20175;-87
2022/01/19 08:51:04;;;;;;;107.82;47.97;;;;;;;6.93;47.67;98834.91;5013309;28;20022;-86
2022/01/19 08:53:31;;;;;;;107.13;47.45;;;;;;;8.17;43.72;98801.94;4999257;28;20036;-88
2022/01/19 08:55:56;;;;;;;91.88;45.08;;;;;;;7.64;42.79;98822.22;5014627;28;20025;-87
2022/01/19 08:58:22;;;;;;;65.20;32.53;;;;;;;7.50;43.22;98816.47;4997445;28;20516;-86
2022/01/19 09:00:48;;;;;;;64.78;28.67;;;;;;;7.06;43.53;98819.50;4996994;28;20504;-87
2022/01/19 09:03:15;;;;;;;66.93;30.80;;;;;;;6.45;44.73;98810.50;4998272;28;20521;-87
2022/01/19 09:05:41;;;;;;;90.57;42.35;;;;;;;6.18;46.08;98842.16;5014341;28;20037;-87
2022/01/19 09:08:07;;;;;;;94.32;37.97;;;;;;;6.15;46.40;98823.66;5013608;28;20045;-87
2022/01/19 09:10:32;;;;;;;75.47;32.03;;;;;;;5.94;46.30;98830.31;4996518;28;20041;-86
2022/01/19 09:12:58;;;;;;;66.47;30.08;;;;;;;6.25;45.97;98822.50;4991361;28;20096;-86
2022/01/19 09:15:23;;;;;;;75.00;31.23;;;;;;;6.82;45.16;98810.41;4984545;28;20453;-87
2022/01/19 09:17:50;;;;;;;77.00;28.65;;;;;;;8.24;42.36;98804.41;4998074;28;20080;-88
2022/01/19 09:20:16;;;;;;;69.10;25.13;;;;;;;9.62;40.06;98795.03;5014679;28;20119;-87
2022/01/19 09:22:42;;;;;;;73.00;27.35;;;;;;;10.88;37.65;98769.38;4994928;28;20417;-85
2022/01/19 09:25:09;;;;;;;51.10;21.80;;;;;;;10.91;37.06;98768.34;4997213;28;20044;-88
2022/01/19 09:27:37;;;;;;;42.15;22.05;;;;;;;11.37;35.55;98760.88;5003907;28;20025;-87
2022/01/19 09:30:05;;;;;;;50.50;21.45;;;;;;;12.04;35.42;98752.38;4999261;28;20425;-87
2022/01/19 09:32:31;;;;;;;64.68;24.08;;;;;;;12.74;33.90;98746.16;4997944;28;20107;-88
2022/01/19 09:35:06;;;;;;;48.42;19.23;;;;;;;13.20;32.58;98724.03;5014375;28;20030;-88
2022/01/19 09:37:32;;;;;;;46.13;18.92;;;;;;;13.54;32.25;98718.56;5015357;28;20057;-87
2022/01/19 09:39:57;;;;;;;40.05;18.73;;;;;;;12.88;32.85;98717.66;4999053;28;20029;-87
2022/01/19 09:42:23;;;;;;;35.47;14.82;;;;;;;13.12;31.98;98709.28;5015110;28;20030;-87
2022/01/19 09:44:48;;;;;;;36.22;16.90;;;;;;;13.46;31.11;98704.69;5016257;28;20121;-87
2022/01/19 09:47:14;;;;;;;31.92;14.25;;;;;;;13.65;31.27;98709.03;5016256;28;20402;-87
2022/01/19 09:49:40;;;;;;;27.17;10.48;;;;;;;13.42;30.66;98719.22;5015576;28;20053;-87
2022/01/19 09:52:05;;;;;;;24.25;11.48;;;;;;;13.51;30.91;98707.97;5020406;28;20026;-87
2022/01/19 09:54:31;;;;;;;36.97;14.65;;;;;;;13.61;30.21;98691.31;4983702;28;20030;-88
2022/01/19 09:56:57;;;;;;;66.78;23.30;;;;;;;14.69;29.17;98686.78;4999063;28;20030;-87
2022/01/19 09:59:23;;;;;;;37.75;11.43;;;;;;;14.67;29.23;98691.41;5014307;28;20028;-88
2022/01/19 10:01:53;;;;;;;49.40;21.77;;;;;;;14.76;28.51;98693.56;4995803;28;20022;-87
2022/01/19 10:04:24;;;;;;;19.27;9.73;;;;;;;15.19;27.56;98683.69;5013322;28;20030;-87
2022/01/19 10:07:07;;;;;;;32.35;13.00;;;;;;;15.84;26.90;98671.44;4977810;28;20126;-86
2022/01/19 10:09:33;;;;;;;21.75;10.38;;;;;;;15.20;27.43;98674.63;5013944;28;20378;-86
2022/01/19 10:17:30;;;;;;;19.27;9.20;;;;;;;14.73;27.07;98666.81;4984320;28;19918;-87
2022/01/19 10:19:56;;;;;;;14.50;7.85;;;;;;;15.36;26.31;98658.34;5012126;28;20049;-88
2022/01/19 10:22:22;;;;;;;22.20;9.55;;;;;;;14.13;27.68;98657.81;5015124;28;20034;-88
2022/01/19 10:25:00;;;;;;;26.92;13.43;;;;;;;14.10;28.24;98658.88;5034892;28;20073;-88
2022/01/19 10:27:45;;;;;;;25.48;11.68;;;;;;;12.74;29.09;98661.09;5004212;28;20057;-87
2022/01/19 10:30:17;;;;;;;27.48;11.48;;;;;;;13.32;29.35;98653.47;5007539;28;20076;-88
2022/01/19 10:32:52;;;;;;;29.20;10.80;;;;;;;13.78;28.33;98649.06;5023935;28;20061;-87
2022/01/19 10:35:38;;;;;;;17.75;9.85;;;;;;;14.79;27.08;98652.09;5007650;28;20109;-87
2022/01/19 10:38:10;;;;;;;16.40;8.52;;;;;;;14.90;27.56;98638.81;5019378;28;20049;-87
2022/01/19 10:40:36;;;;;;;;;;;;;;;15.46;26.48;98627.16;5018910;28;20030;-86
2022/01/19 10:43:40;;;;;;;17.38;10.15;;;;;;;14.36;27.97;98632.28;5002491;28;19928;-87
2022/01/19 10:46:23;;;;;;;69.13;21.63;;;;;;;14.35;27.55;98635.91;5000263;28;20528;-87
2022/01/19 10:48:48;;;;;;;;;;;;;;;15.29;26.63;98614.72;5018226;28;20140;-87
2022/01/19 10:51:17;;;;;;;16.80;8.00;;;;;;;15.22;26.41;98602.63;5002301;28;19960;-87
2022/01/19 10:54:04;;;;;;;16.25;7.28;;;;;;;14.41;27.89;98614.00;5020709;28;20023;-88
2022/01/19 10:56:32;;;;;;;17.60;6.75;;;;;;;14.45;27.08;98594.91;5037516;28;20029;-87
2022/01/19 10:59:04;;;;;;;12.73;6.63;;;;;;;15.23;26.74;98598.94;5005625;28;20026;-88
2022/01/19 11:01:38;;;;;;;15.95;8.32;;;;;;;14.35;27.12;98600.91;5023271;28;20038;-88
2022/01/19 11:04:40;;;;;;;10.95;6.35;;;;;;;15.19;26.81;98592.03;5026053;28;20040;-89
2022/01/19 11:07:11;;;;;;;21.08;10.85;;;;;;;16.05;25.91;98582.78;4988699;28;20034;-86
2022/01/19 11:10:00;;;;;;;19.92;11.25;;;;;;;15.39;26.49;98582.66;5005844;28;20085;-87
2022/01/19 11:12:30;;;;;;;10.48;5.72;;;;;;;15.21;26.20;98563.16;4999936;28;20042;-87
2022/01/19 11:14:56;;;;;;;10.55;4.53;;;;;;;15.00;26.21;98565.41;5021627;28;20022;-88
2022/01/19 11:17:22;;;;;;;20.80;12.13;;;;;;;15.32;26.19;98551.69;5003635;28;20034;-86
2022/01/19 11:19:49;;;;;;;11.93;6.75;;;;;;;15.49;26.31;98552.34;5018222;28;20532;-86
2022/01/19 11:22:36;;;;;;;31.92;15.43;;;;;;;15.47;26.14;98546.16;4995945;28;20028;-87
2022/01/19 11:25:17;;;;;;;7.68;3.70;;;;;;;15.73;25.76;98541.75;5015288;28;20060;-89
2022/01/19 11:27:45;;;;;;;9.65;4.35;;;;;;;15.67;25.46;98525.97;5021809;28;20037;-87
2022/01/19 11:30:22;;;;;;;15.18;8.50;;;;;;;15.66;25.77;98519.72;5023362;28;20084;-87
2022/01/19 11:33:25;;;;;;;17.02;7.97;;;;;;;15.64;25.68;98518.97;4998773;28;20025;-88
2022/01/19 11:36:03;;;;;;;9.80;4.47;;;;;;;14.97;26.02;98511.69;5032727;28;20030;-88
2022/01/19 11:38:49;;;;;;;8.38;4.93;;;;;;;14.09;27.30;98506.44;5003711;28;20048;-85
2022/01/19 11:41:18;;;;;;;10.25;4.03;;;;;;;14.33;27.05;98519.41;5020066;28;20030;-87
2022/01/19 11:43:51;;;;;;;17.02;6.00;;;;;;;14.84;26.76;98523.34;5037486;28;20026;-84
2022/01/19 11:46:31;;;;;;;14.50;7.78;;;;;;;14.53;28.49;98527.97;5019964;28;20539;-86
2022/01/19 11:48:59;;;;;;;11.85;5.55;;;;;;;14.85;26.72;98527.78;5019410;28;20133;-87
2022/01/19 11:51:29;;;;;;;13.73;7.47;;;;;;;14.99;26.21;98525.06;5020655;28;20026;-86
2022/01/19 11:54:01;;;;;;;12.70;6.68;;;;;;;15.43;25.83;98514.97;5003284;28;20041;-86
2022/01/19 11:56:27;;;;;;;26.38;6.97;;;;;;;15.64;25.62;98513.56;5019011;28;20512;-87
2022/01/19 11:59:09;;;;;;;10.35;4.63;;;;;;;15.01;25.69;98501.59;4999907;28;20116;-86
2022/01/19 12:01:36;;;;;;;27.65;18.73;;;;;;;15.39;25.77;98494.56;4997484;28;20030;-87
2022/01/19 12:04:20;;;;;;;12.07;5.05;;;;;;;14.98;25.79;98489.16;5018911;28;20072;-88
2022/01/19 12:06:47;;;;;;;27.10;10.18;;;;;;;15.29;25.94;98479.94;5018735;28;20040;-88
2022/01/19 12:09:13;;;;;;;18.30;7.70;;;;;;;14.99;25.87;98484.66;4990384;28;20033;-88
2022/01/19 12:11:49;;;;;;;17.27;9.48;;;;;;;15.71;24.69;98471.72;5004793;28;20030;-87
2022/01/19 12:14:22;;;;;;;16.95;8.00;;;;;;;15.95;24.10;98461.09;5018449;28;20113;-87
2022/01/19 12:19:30;;;;;;;11.20;6.45;;;;;;;15.62;25.22;98456.19;5008987;28;20488;-86
2022/01/19 12:22:20;;;;;;;11.48;5.28;;;;;;;15.34;24.99;98458.09;5005269;28;20033;-87
2022/01/19 12:24:56;;;;;;;11.88;5.03;;;;;;;14.46;25.23;98462.00;4999017;28;20103;-87
2022/01/19 12:27:31;;;;;;;9.48;5.13;;;;;;;15.22;25.28;98457.06;5008222;28;20451;-87
2022/01/19 12:30:13;;;;;;;15.88;7.47;;;;;;;15.15;25.17;98440.44;5015751;28;20498;-87
2022/01/19 12:32:46;;;;;;;9.87;5.10;;;;;;;15.40;24.17;98422.63;5016226;28;20549;-87
2022/01/19 12:35:31;;;;;;;19.95;9.02;;;;;;;16.20;23.90;98417.06;4999892;28;20029;-88
2022/01/19 12:37:57;;;;;;;19.63;6.03;;;;;;;15.00;25.15;98413.63;5005437;28;20037;-88
2022/01/19 12:40:24;;;;;;;14.68;8.45;;;;;;;15.23;25.08;98420.22;5015980;28;20112;-86
2022/01/19 12:42:50;;;;;;;11.05;6.40;;;;;;;15.47;24.69;98403.25;5032988;28;20038;-88
2022/01/19 12:45:15;;;;;;;14.63;7.65;;;;;;;15.48;24.38;98398.72;5033569;28;20402;-88
2022/01/19 12:47:41;;;;;;;11.38;6.18;;;;;;;15.79;24.44;98397.47;5031604;28;20037;-87
2022/01/19 12:50:06;;;;;;;16.30;8.32;;;;;;;15.56;24.72;98391.88;5031627;28;20054;-86
2022/01/19 12:52:33;;;;;;;10.68;4.30;;;;;;;15.56;24.61;98385.59;5033972;28;20494;-86
2022/01/19 12:55:13;;;;;;;10.75;4.72;;;;;;;14.90;25.22;98401.72;4997468;28;20081;-88
2022/01/19 12:57:40;;;;;;;15.45;8.35;;;;;;;15.20;24.92;98391.59;5001388;28;20109;-87
2022/01/19 13:00:09;;;;;;;8.10;4.63;;;;;;;15.22;25.08;98397.78;5000722;28;20052;-88